Aérodrome :
LOGIN :

S'inscrire | Disclaimer

   EN    FR    IT 

 










Légende :    VFR   VFR Marginal   IFR   IFR Intensif   IFR Très Intensif
Visi : 
Plafond : 
>= 8 km
>= 3000ft
5 à 8 km
1000 à 3000 ft
1500m à 5 km
500 à 1000 ft
800 à 1500m
200 à 500 ft
< 800m
< 200 ft
Symboles :   Orages  Brouillard  Fortes neiges  Fortes précipitations  Vent > 20 kt
SIGMETs :   Divers  Orages  Givrage  Turbulence  Onde Orograph.  Cendres Volcan.






- Altitude de l'aérodrome : 230 ft


ETHB - Buckeburg Army

DERNIER METAR :
  • 301920Z AUTO VRB02KT 9999 // ////// 25/15 Q1008 ///

METARs EXPIRÉS :
  • 301820Z AUTO 12005KT 9999 // ////// 27/16 Q1008 ///
  • 301720Z AUTO 12007KT 9999 // ////// 28/16 Q1008 ///

TAF TAF ETHB
Valide du 30 à 14h jusqu'au 30 à 23h UTC


301305Z 3014/3023 11008KT 9999 NSW FEW035 SCT100
PROB30 3014/3023 VRB15G28KT 3000 TSRA SCT020 BKN030CB



MET'MAP, la Météo Aéronautique d'un coup d'oeil ! - Copyright ORBIFLY Décembre 2007 - Disclaimer

ORBIFLY MET'MAP TEAM :

Programmation & Développement : Alexandra Zaïnal
Sur une idée originale de : Baudouin d'Aumeries
Soutien technique & logistique : Manuel Goepfert
Assistance : Marc-Olivier Méhu




SOURCES & CREDITS :

   NOAA